Time;durP1;ratioP1;P1;durP2;ratioP2;P2;SDS_P1;SDS_P2;PMS_P1;PMS_P2;Temp;Humidity;BMP_temperature;BMP_pressure;BME280_temperature;BME280_humidity;BME280_pressure;Samples;Min_cycle;Max_cycle;Signal;HPM_P1;HPM_P2
2022/04/02 00:00:28;;;;;;;3.63;2.30;;;11.30;58.90;;;;;;4972141;28;20027;-40
2022/04/02 00:02:57;;;;;;;5.55;3.03;;;11.40;59.30;;;;;;4972030;28;20045;-40
2022/04/02 00:05:25;;;;;;;5.53;3.40;;;11.40;58.90;;;;;;4972735;28;20047;-40
2022/04/02 00:08:03;;;;;;;5.47;3.90;;;11.40;58.90;;;;;;4971997;28;20058;-40
2022/04/02 00:10:29;;;;;;;5.25;3.65;;;11.50;59.80;;;;;;4972460;28;20057;-40
2022/04/02 00:12:55;;;;;;;5.40;4.25;;;11.60;59.50;;;;;;4958142;28;20479;-40
2022/04/02 00:15:22;;;;;;;10.18;5.35;;;11.50;58.50;;;;;;4976781;28;20392;-40
2022/04/02 00:17:48;;;;;;;7.40;5.43;;;11.50;59.00;;;;;;4975778;28;20370;-40
2022/04/02 00:20:14;;;;;;;10.30;5.70;;;11.40;60.00;;;;;;4976338;28;20027;-40
2022/04/02 00:23:35;;;;;;;6.93;4.45;;;11.50;60.20;;;;;;4975608;28;20031;-40
2022/04/02 00:25:25;;;;;;;6.68;5.05;;;11.40;61.20;;;;;;4976157;28;20042;-40
2022/04/02 00:27:51;;;;;;;8.48;5.82;;;11.40;61.40;;;;;;4975661;28;20031;-40
2022/04/02 00:30:16;;;;;;;6.25;5.13;;;11.40;61.90;;;;;;4975594;28;20023;-40
2022/04/02 00:32:42;;;;;;;9.93;5.75;;;11.40;62.50;;;;;;4974637;28;20038;-39
2022/04/02 00:35:09;;;;;;;9.05;5.88;;;11.40;62.30;;;;;;4976056;28;20023;-39
2022/04/02 00:37:35;;;;;;;6.95;5.03;;;11.50;62.80;;;;;;4975217;28;20027;-39
2022/04/02 00:40:01;;;;;;;6.18;4.55;;;11.50;61.10;;;;;;4975252;28;20026;-40
2022/04/02 00:42:27;;;;;;;6.10;4.25;;;11.60;61.00;;;;;;4973720;28;20030;-40
2022/04/02 00:44:52;;;;;;;5.85;3.95;;;11.50;59.50;;;;;;4976072;28;20400;-39
2022/04/02 00:47:20;;;;;;;6.40;4.50;;;11.60;59.00;;;;;;4975219;28;20493;-39
2022/04/02 00:49:46;;;;;;;4.85;3.90;;;11.50;58.50;;;;;;4976027;28;20030;-39
2022/04/02 00:52:13;;;;;;;4.68;4.07;;;11.60;58.10;;;;;;4957592;28;20053;-40
2022/04/02 00:54:40;;;;;;;4.30;2.75;;;11.60;57.50;;;;;;4976004;28;20039;-40
2022/04/02 00:57:06;;;;;;;5.82;2.72;;;11.50;56.50;;;;;;4973533;28;20416;-40
2022/04/02 00:59:32;;;;;;;3.67;2.92;;;11.50;56.00;;;;;;4958386;28;20031;-40
2022/04/02 01:01:57;;;;;;;5.03;3.35;;;11.50;55.90;;;;;;4975417;28;20109;-40
2022/04/02 01:04:23;;;;;;;3.67;3.15;;;11.50;56.30;;;;;;4975404;28;20031;-40
2022/04/02 01:07:02;;;;;;;4.63;2.90;;;11.40;56.10;;;;;;4974750;28;20177;-40
2022/04/02 01:09:27;;;;;;;3.92;3.53;;;11.40;56.40;;;;;;4974302;28;20058;-39
2022/04/02 01:11:54;;;;;;;3.88;3.47;;;11.50;56.80;;;;;;4975495;28;20060;-40
2022/04/02 01:14:20;;;;;;;4.32;3.38;;;11.50;56.30;;;;;;4974969;28;20113;-40
2022/04/02 01:16:45;;;;;;;4.43;3.58;;;11.50;57.30;;;;;;4974226;28;20497;-39
2022/04/02 01:19:11;;;;;;;4.78;3.95;;;11.50;57.60;;;;;;4974351;28;20031;-39
2022/04/02 01:21:37;;;;;;;6.63;3.78;;;11.50;56.60;;;;;;4975520;28;20027;-39
2022/04/02 01:24:04;;;;;;;6.72;3.22;;;11.40;56.70;;;;;;4974131;28;20027;-40
2022/04/02 01:26:30;;;;;;;5.18;3.67;;;11.40;56.40;;;;;;4972563;28;20023;-40
2022/04/02 01:28:57;;;;;;;5.25;3.03;;;11.40;55.80;;;;;;4957514;28;20031;-40
2022/04/02 01:31:23;;;;;;;6.47;2.97;;;11.40;56.30;;;;;;4956677;28;20485;-40
2022/04/02 01:33:49;;;;;;;3.33;2.63;;;11.30;55.30;;;;;;4975026;28;20074;-39
2022/04/02 01:36:15;;;;;;;4.05;2.63;;;11.30;54.70;;;;;;4974141;28;20100;-39
2022/04/02 01:38:41;;;;;;;5.35;3.00;;;11.30;54.90;;;;;;4975152;28;20027;-40
2022/04/02 01:41:07;;;;;;;4.75;2.72;;;11.30;55.20;;;;;;4974177;28;20027;-39
2022/04/02 01:43:34;;;;;;;3.25;2.60;;;11.30;55.40;;;;;;4975004;28;20354;-39
2022/04/02 01:46:01;;;;;;;5.77;2.87;;;11.30;55.60;;;;;;4974090;28;20031;-39
2022/04/02 01:48:27;;;;;;;3.97;2.67;;;11.30;54.80;;;;;;4974760;28;20026;-40
2022/04/02 01:50:53;;;;;;;6.45;2.92;;;11.30;54.70;;;;;;4974070;28;20074;-39
2022/04/02 01:53:20;;;;;;;4.45;2.65;;;11.30;54.20;;;;;;4973224;28;20071;-40
2022/04/02 01:55:46;;;;;;;5.68;2.65;;;11.30;54.70;;;;;;4973168;28;20041;-40
2022/04/02 01:58:12;;;;;;;4.88;3.15;;;11.30;54.90;;;;;;4974863;28;20106;-40
2022/04/02 02:00:39;;;;;;;4.97;3.38;;;11.30;54.50;;;;;;4973642;28;20054;-40
2022/04/02 02:03:06;;;;;;;6.60;3.80;;;11.30;54.00;;;;;;4973710;28;20503;-40
2022/04/02 02:05:33;;;;;;;6.32;3.45;;;11.30;53.70;;;;;;4971732;28;20517;-40
2022/04/02 02:07:59;;;;;;;4.68;3.75;;;11.30;51.90;;;;;;4974517;28;20030;-40
2022/04/02 02:10:25;;;;;;;8.07;3.78;;;11.30;53.10;;;;;;4973631;28;20022;-40
2022/04/02 02:12:51;;;;;;;8.38;3.40;;;11.30;52.80;;;;;;4974305;28;20047;-40
2022/04/02 02:15:17;;;;;;;7.82;3.33;;;11.30;53.00;;;;;;4973390;28;20366;-40
2022/04/02 02:17:49;;;;;;;6.40;4.40;;;11.20;50.80;;;;;;4974477;28;20118;-40
2022/04/02 02:20:17;;;;;;;6.45;4.22;;;11.10;53.50;;;;;;4972036;28;20558;-40
2022/04/02 02:22:44;;;;;;;7.88;4.05;;;11.20;53.90;;;;;;4974206;28;20038;-40
2022/04/02 02:25:13;;;;;;;10.98;4.28;;;11.30;53.90;;;;;;4972741;28;20446;-40
2022/04/02 02:27:40;;;;;;;11.50;4.63;;;11.30;54.10;;;;;;4974017;28;20551;-40
2022/04/02 02:30:08;;;;;;;7.00;3.83;;;11.30;54.30;;;;;;4973407;28;20131;-39
2022/04/02 02:32:37;;;;;;;6.65;4.35;;;11.40;53.90;;;;;;4973826;28;20031;-40
2022/04/02 02:38:11;;;;;;;7.75;4.25;;;11.30;53.80;;;;;;4973741;28;20033;-39
2022/04/02 02:40:38;;;;;;;6.40;4.95;;;11.30;55.30;;;;;;4972886;28;20034;-40
2022/04/02 02:43:05;;;;;;;7.40;4.28;;;11.20;54.40;;;;;;4956408;28;20035;-40
2022/04/02 02:45:32;;;;;;;6.72;4.25;;;11.20;53.60;;;;;;4972514;28;20322;-40
2022/04/02 02:47:59;;;;;;;6.28;4.28;;;11.00;55.40;;;;;;4973646;28;20026;-40
2022/04/02 02:50:25;;;;;;;5.55;4.45;;;11.00;55.20;;;;;;4972996;28;20038;-40
2022/04/02 02:52:51;;;;;;;10.00;5.13;;;11.00;54.80;;;;;;4955923;28;20073;-40
2022/04/02 02:55:18;;;;;;;6.15;4.13;;;11.00;53.90;;;;;;4971264;28;20365;-40
2022/04/02 02:57:45;;;;;;;7.43;3.78;;;10.90;53.60;;;;;;4972310;28;20061;-40
2022/04/02 03:00:12;;;;;;;6.68;3.50;;;10.80;53.70;;;;;;4972939;28;20027;-39
2022/04/02 03:02:39;;;;;;;5.53;2.90;;;10.70;51.30;;;;;;4972118;28;20034;-40
2022/04/02 03:05:15;;;;;;;6.63;2.10;;;10.50;49.20;;;;;;4955278;28;20049;-40
2022/04/02 03:07:49;;;;;;;4.32;1.70;;;10.50;45.80;;;;;;4973371;28;20038;-40
2022/04/02 03:10:19;;;;;;;9.63;2.07;;;10.50;44.50;;;;;;4972936;28;20062;-40
2022/04/02 03:12:47;;;;;;;6.07;1.73;;;10.30;43.70;;;;;;4972442;28;20031;-40
2022/04/02 03:15:15;;;;;;;7.07;2.33;;;10.30;45.60;;;;;;4971227;28;20090;-40
2022/04/02 03:17:43;;;;;;;4.57;1.67;;;10.40;43.60;;;;;;4973348;28;20019;-40
2022/04/02 03:20:11;;;;;;;8.33;1.70;;;10.50;43.30;;;;;;4972861;28;20050;-40
2022/04/02 03:22:40;;;;;;;10.02;2.00;;;10.50;42.50;;;;;;4973249;28;20034;-40
2022/04/02 03:25:11;;;;;;;5.73;1.67;;;10.40;42.80;;;;;;4972489;28;20385;-40
2022/04/02 03:27:38;;;;;;;4.97;1.60;;;10.50;42.10;;;;;;4973373;28;20055;-39
2022/04/02 03:30:07;;;;;;;5.72;1.65;;;10.40;40.70;;;;;;4972207;28;20031;-40
2022/04/02 03:32:33;;;;;;;5.43;1.70;;;10.40;37.90;;;;;;4972998;28;20110;-40
2022/04/02 03:34:59;;;;;;;3.97;1.00;;;10.40;38.10;;;;;;4955039;28;20133;-39
2022/04/02 03:37:25;;;;;;;6.93;1.42;;;10.30;38.70;;;;;;4973215;28;20204;-39
2022/04/02 03:39:52;;;;;;;7.57;1.70;;;10.40;36.40;;;;;;4970658;28;20396;-39
2022/04/02 03:42:18;;;;;;;4.40;1.10;;;10.30;35.80;;;;;;4973030;28;20031;-40
2022/04/02 03:44:45;;;;;;;7.17;1.30;;;10.30;34.20;;;;;;4972307;28;20054;-40
2022/04/02 03:47:11;;;;;;;7.97;1.73;;;10.20;36.40;;;;;;4974842;28;20045;-40
2022/04/02 03:49:39;;;;;;;4.40;1.37;;;10.20;34.40;;;;;;4977033;28;20027;-40
2022/04/02 03:52:06;;;;;;;5.27;1.17;;;10.10;36.30;;;;;;4976163;28;20053;-40
2022/04/02 03:54:32;;;;;;;4.83;1.47;;;10.20;36.60;;;;;;4976754;28;20117;-40
2022/04/02 03:56:58;;;;;;;4.20;1.30;;;10.10;34.70;;;;;;4975964;28;20065;-40
2022/04/02 03:59:24;;;;;;;3.67;1.60;;;10.10;36.00;;;;;;4976781;28;20026;-40
2022/04/02 04:01:49;;;;;;;8.93;1.97;;;10.10;35.40;;;;;;4975491;28;20085;-40
2022/04/02 04:04:15;;;;;;;5.63;1.40;;;9.90;36.20;;;;;;4976938;28;20031;-40
2022/04/02 04:06:41;;;;;;;4.13;1.40;;;9.90;35.90;;;;;;4975594;28;20445;-39
2022/04/02 04:09:06;;;;;;;5.37;1.03;;;9.90;36.80;;;;;;4975822;28;20457;-40
2022/04/02 04:11:33;;;;;;;7.73;1.70;;;10.10;36.20;;;;;;4975829;28;20148;-40
2022/04/02 04:13:59;;;;;;;8.90;1.60;;;10.20;35.10;;;;;;4977210;28;20046;-40
2022/04/02 04:16:25;;;;;;;7.75;1.67;;;10.10;35.20;;;;;;4975777;28;20129;-40
2022/04/02 04:18:51;;;;;;;6.10;1.50;;;10.00;35.90;;;;;;4976534;28;20045;-39
2022/04/02 04:21:17;;;;;;;6.10;1.50;;;10.00;35.20;;;;;;4975452;28;20423;-40
2022/04/02 04:23:43;;;;;;;6.80;2.07;;;10.10;36.20;;;;;;4976211;28;20031;-40
2022/04/02 04:26:09;;;;;;;7.20;1.30;;;10.10;34.50;;;;;;4975414;28;20063;-39
2022/04/02 04:28:36;;;;;;;7.53;1.60;;;10.10;34.70;;;;;;4976174;28;20038;-39
2022/04/02 04:31:02;;;;;;;11.70;2.28;;;10.10;34.60;;;;;;4975366;28;20104;-39
2022/04/02 04:33:28;;;;;;;1.88;0.98;;;10.00;33.70;;;;;;4975352;28;20113;-40
2022/04/02 04:35:54;;;;;;;9.07;1.97;;;10.10;34.00;;;;;;4974605;28;20122;-39
2022/04/02 04:38:20;;;;;;;6.70;1.47;;;10.10;33.90;;;;;;4975405;28;20053;-40
2022/04/02 04:40:45;;;;;;;11.83;1.93;;;10.00;33.80;;;;;;4975441;28;20471;-40
2022/04/02 04:43:11;;;;;;;5.53;1.47;;;10.00;34.60;;;;;;4976020;28;20031;-40
2022/04/02 04:45:36;;;;;;;5.53;1.40;;;9.90;33.20;;;;;;4975108;28;20104;-40
2022/04/02 04:48:02;;;;;;;5.37;1.23;;;9.90;33.50;;;;;;4975963;28;20070;-40
2022/04/02 04:50:28;;;;;;;9.00;1.67;;;9.90;34.00;;;;;;4975125;28;20059;-40
2022/04/02 04:52:54;;;;;;;6.00;1.40;;;9.90;33.80;;;;;;4975698;28;20070;-40
2022/04/02 04:55:19;;;;;;;8.97;1.73;;;10.00;34.50;;;;;;4974935;28;20027;-40
2022/04/02 04:57:48;;;;;;;8.37;1.83;;;10.00;33.30;;;;;;4974581;28;20373;-40
2022/04/02 05:00:15;;;;;;;7.80;1.47;;;9.90;33.20;;;;;;4975502;28;20169;-40
2022/04/02 05:02:44;;;;;;;4.90;1.60;;;9.80;33.50;;;;;;4974713;28;20061;-40
2022/04/02 05:05:12;;;;;;;8.77;1.50;;;9.80;33.10;;;;;;4975642;28;20042;-40
2022/04/02 05:07:41;;;;;;;5.90;1.43;;;9.80;33.50;;;;;;4974684;28;20034;-40
2022/04/02 05:10:08;;;;;;;8.07;2.03;;;9.90;34.80;;;;;;4975934;28;20035;-40
2022/04/02 05:12:34;;;;;;;2.77;0.80;;;10.00;33.80;;;;;;4974844;28;20100;-40
2022/04/02 05:15:00;;;;;;;4.50;1.13;;;10.00;33.30;;;;;;4975647;28;20027;-40
2022/04/02 05:17:26;;;;;;;5.90;1.63;;;10.10;33.50;;;;;;4974793;28;20374;-40
2022/04/02 05:19:52;;;;;;;4.57;1.67;;;10.20;34.40;;;;;;4975512;28;20067;-40
2022/04/02 05:22:21;;;;;;;5.05;1.73;;;9.90;34.00;;;;;;4974557;28;20038;-40
2022/04/02 05:24:46;;;;;;;4.43;1.43;;;10.00;33.30;;;;;;4975473;28;20081;-40
2022/04/02 05:27:12;;;;;;;6.00;1.87;;;10.00;34.60;;;;;;4974811;28;20444;-40
2022/04/02 05:29:37;;;;;;;6.37;1.77;;;10.00;34.70;;;;;;4975170;28;20105;-40
2022/04/02 05:32:03;;;;;;;5.80;1.90;;;10.00;34.80;;;;;;4973542;28;20089;-40
2022/04/02 05:34:30;;;;;;;5.13;1.90;;;10.10;34.90;;;;;;4974289;28;20064;-40
2022/04/02 05:37:08;;;;;;;7.30;1.70;;;10.10;34.80;;;;;;4974119;28;20516;-40
2022/04/02 05:39:34;;;;;;;7.77;1.40;;;10.10;35.80;;;;;;4957405;28;20579;-40
2022/04/02 05:42:00;;;;;;;7.37;1.40;;;10.10;35.70;;;;;;4974076;28;20031;-40
2022/04/02 05:44:26;;;;;;;4.50;1.57;;;10.10;36.30;;;;;;4973670;28;20030;-40
2022/04/02 05:46:52;;;;;;;7.17;1.87;;;10.10;36.90;;;;;;4974220;28;20034;-40
2022/04/02 05:49:18;;;;;;;3.80;1.50;;;10.10;36.00;;;;;;4975117;28;20031;-40
2022/04/02 05:51:44;;;;;;;5.03;1.67;;;10.10;36.20;;;;;;4973990;28;20105;-40
2022/04/02 05:54:10;;;;;;;6.97;1.63;;;10.00;35.30;;;;;;4973351;28;20042;-40
2022/04/02 05:56:36;;;;;;;5.80;1.40;;;10.10;36.70;;;;;;4973857;28;20015;-40
2022/04/02 05:59:05;;;;;;;4.40;1.30;;;10.00;35.70;;;;;;4974825;28;20035;-39
2022/04/02 06:01:32;;;;;;;4.47;1.53;;;9.80;36.00;;;;;;4974251;28;20081;-39
2022/04/02 06:03:58;;;;;;;6.03;1.90;;;9.80;37.20;;;;;;4974624;28;20390;-40
2022/04/02 06:06:24;;;;;;;6.67;1.80;;;10.10;36.20;;;;;;4971641;28;20631;-39
2022/04/02 06:08:49;;;;;;;3.03;1.50;;;10.00;35.90;;;;;;4974111;28;20059;-40
2022/04/02 06:11:15;;;;;;;4.87;1.50;;;10.10;36.50;;;;;;4972159;28;20070;-39
2022/04/02 06:13:41;;;;;;;4.10;1.67;;;10.00;36.20;;;;;;4974474;28;20039;-39
2022/04/02 06:16:07;;;;;;;6.77;1.70;;;10.00;36.40;;;;;;4973719;28;20038;-40
2022/04/02 06:18:32;;;;;;;4.77;1.37;;;10.00;36.20;;;;;;4974389;28;20444;-39
2022/04/02 06:21:03;;;;;;;3.83;1.53;;;9.90;36.30;;;;;;4973350;28;20157;-39
2022/04/02 06:23:29;;;;;;;6.37;1.33;;;10.00;35.90;;;;;;4974441;28;20185;-39
2022/04/02 06:25:55;;;;;;;4.87;1.20;;;9.90;35.00;;;;;;4973355;28;20078;-40
2022/04/02 06:28:21;;;;;;;4.20;1.17;;;10.00;36.30;;;;;;4973949;28;20587;-39
2022/04/02 06:30:47;;;;;;;4.03;1.30;;;10.10;35.90;;;;;;4973242;28;20056;-40
2022/04/02 06:33:12;;;;;;;4.47;1.20;;;10.00;35.70;;;;;;4973685;28;20109;-39
2022/04/02 06:35:38;;;;;;;3.13;1.00;;;9.90;35.20;;;;;;4974131;28;20038;-39
2022/04/02 06:38:04;;;;;;;4.33;1.27;;;10.00;35.70;;;;;;4972579;28;20037;-39
2022/04/02 06:40:29;;;;;;;4.53;1.57;;;10.10;35.40;;;;;;4973786;28;20027;-39
2022/04/02 06:42:58;;;;;;;6.10;1.70;;;10.10;35.50;;;;;;4955736;28;20073;-39
2022/04/02 06:48:45;;;;;;;4.43;1.63;;;10.00;34.40;;;;;;4974361;28;20037;-40
2022/04/02 06:51:11;;;;;;;5.90;1.70;;;10.00;35.70;;;;;;4972382;28;20026;-40
2022/04/02 06:53:37;;;;;;;7.43;1.73;;;10.00;34.80;;;;;;4972803;28;20149;-40
2022/04/02 06:56:03;;;;;;;7.73;1.87;;;10.10;34.50;;;;;;4973722;28;20030;-39
2022/04/02 06:58:32;;;;;;;3.58;1.25;;;10.20;35.20;;;;;;4973036;28;20027;-40
2022/04/02 07:00:58;;;;;;;2.57;1.27;;;10.40;35.10;;;;;;4973637;28;20525;-40
2022/04/02 07:03:23;;;;;;;6.63;1.43;;;10.40;35.20;;;;;;4972776;28;20204;-40
2022/04/02 07:05:50;;;;;;;5.00;1.40;;;10.40;34.10;;;;;;4973300;28;20389;-40
2022/04/02 07:08:15;;;;;;;6.10;1.40;;;10.40;33.30;;;;;;4972655;28;20031;-40
2022/04/02 07:10:41;;;;;;;3.87;1.17;;;10.40;32.70;;;;;;4972867;28;20034;-39
2022/04/02 07:13:07;;;;;;;3.77;1.03;;;10.40;31.60;;;;;;4971908;28;20396;-40
2022/04/02 07:15:33;;;;;;;3.57;1.57;;;10.40;32.20;;;;;;4972568;28;20093;-40
2022/04/02 07:18:06;;;;;;;2.47;0.93;;;10.40;30.50;;;;;;4955863;28;20050;-40
2022/04/02 07:20:34;;;;;;;3.93;0.80;;;10.50;31.90;;;;;;4972020;28;20019;-40
2022/04/02 07:23:02;;;;;;;2.08;1.00;;;10.50;31.20;;;;;;4973319;28;20241;-40
2022/04/02 07:25:29;;;;;;;2.70;0.83;;;10.40;30.00;;;;;;4972724;28;20036;-39
2022/04/02 07:27:56;;;;;;;7.00;1.98;;;10.50;31.10;;;;;;4973283;28;20392;-39
2022/04/02 07:30:23;;;;;;;5.03;1.30;;;10.70;31.80;;;;;;4972388;28;20039;-39
2022/04/02 07:32:49;;;;;;;8.50;1.42;;;10.60;32.30;;;;;;4973084;28;20106;-39
2022/04/02 07:35:14;;;;;;;4.77;1.90;;;10.60;32.60;;;;;;4972235;28;20138;-39
2022/04/02 07:38:03;;;;;;;2.72;1.75;;;10.60;31.90;;;;;;4972457;28;20038;-39
2022/04/02 07:40:36;;;;;;;4.68;1.90;;;10.60;30.70;;;;;;4968821;28;20162;-39
2022/04/02 07:43:04;;;;;;;4.70;1.53;;;10.70;32.60;;;;;;4973059;28;20043;-39
2022/04/02 07:45:41;;;;;;;3.77;2.13;;;10.70;31.70;;;;;;4972545;28;20042;-39
2022/04/02 07:48:09;;;;;;;5.30;1.80;;;10.80;32.10;;;;;;4973143;28;20023;-39
2022/04/02 07:50:34;;;;;;;4.07;1.75;;;10.90;31.90;;;;;;4972118;28;20034;-40
2022/04/02 07:53:02;;;;;;;4.63;1.70;;;10.70;31.90;;;;;;4972814;28;20049;-39
2022/04/02 07:55:29;;;;;;;5.17;1.73;;;10.90;32.30;;;;;;4972179;28;20027;-39
2022/04/02 07:58:01;;;;;;;4.68;1.50;;;10.90;32.50;;;;;;4972892;28;20027;-39
2022/04/02 08:00:27;;;;;;;7.53;1.85;;;11.00;33.30;;;;;;4972108;28;20031;-40
2022/04/02 08:02:53;;;;;;;4.18;1.35;;;11.00;33.10;;;;;;4969922;28;20023;-40
2022/04/02 08:05:21;;;;;;;4.00;2.15;;;11.10;31.50;;;;;;4971720;28;20472;-40
2022/04/02 08:07:55;;;;;;;5.10;2.35;;;11.00;31.60;;;;;;4972654;28;20027;-39
2022/04/02 08:10:23;;;;;;;4.78;1.67;;;11.30;32.30;;;;;;4972025;28;20114;-39
2022/04/02 08:12:49;;;;;;;4.95;1.92;;;11.40;30.60;;;;;;4971277;28;20019;-39
2022/04/02 08:15:20;;;;;;;2.85;1.38;;;11.20;30.10;;;;;;4971854;28;20166;-39
2022/04/02 08:17:53;;;;;;;3.20;1.17;;;11.40;29.20;;;;;;4972737;28;20019;-39
2022/04/02 08:20:20;;;;;;;2.47;1.25;;;11.30;29.80;;;;;;4972014;28;20023;-39
2022/04/02 08:22:46;;;;;;;3.15;1.58;;;11.20;29.20;;;;;;4972610;28;20034;-40
2022/04/02 08:25:13;;;;;;;3.42;1.55;;;11.40;28.50;;;;;;4972174;28;20377;-39
2022/04/02 08:27:59;;;;;;;3.50;1.70;;;11.70;29.50;;;;;;4971816;28;20035;-39
2022/04/02 08:30:53;;;;;;;4.25;1.20;;;11.50;28.30;;;;;;4971738;28;20118;-40
2022/04/02 08:33:22;;;;;;;7.07;1.40;;;11.60;27.40;;;;;;4975728;28;20385;-39
2022/04/02 08:36:05;;;;;;;2.72;1.25;;;11.60;28.30;;;;;;4975080;28;20180;-38
2022/04/02 08:38:47;;;;;;;7.28;1.65;;;11.80;27.80;;;;;;4975204;28;20453;-39
2022/04/02 08:41:37;;;;;;;5.93;1.73;;;11.90;27.80;;;;;;4975326;28;20030;-39
2022/04/02 08:44:24;;;;;;;6.22;1.88;;;11.80;26.90;;;;;;4976327;28;20042;-39
2022/04/02 08:47:12;;;;;;;4.10;1.90;;;12.00;26.10;;;;;;4974549;28;20031;-39
2022/04/02 08:50:13;;;;;;;5.53;1.50;;;12.20;26.30;;;;;;4975030;28;20034;-39
2022/04/02 08:52:53;;;;;;;7.75;2.47;;;12.30;26.10;;;;;;4975618;28;20027;-39
2022/04/02 08:55:20;;;;;;;5.40;2.83;;;12.50;26.20;;;;;;4973462;28;20035;-39
2022/04/02 08:57:52;;;;;;;4.28;2.30;;;12.30;25.70;;;;;;4971714;28;20392;-39
2022/04/02 09:00:23;;;;;;;8.02;3.10;;;12.20;26.20;;;;;;4974097;28;20035;-39
2022/04/02 09:03:26;;;;;;;9.38;4.40;;;12.20;26.40;;;;;;4974274;28;20057;-39
2022/04/02 09:06:30;;;;;;;5.22;2.58;;;12.40;25.10;;;;;;4973719;28;20035;-40
2022/04/02 09:09:08;;;;;;;4.65;2.10;;;12.50;25.00;;;;;;4973969;28;20034;-39
2022/04/02 09:11:36;;;;;;;4.32;1.70;;;12.50;25.20;;;;;;4974611;28;20358;-39
2022/04/02 09:14:27;;;;;;;6.15;2.47;;;12.50;25.10;;;;;;4974660;28;20027;-40
2022/04/02 09:17:01;;;;;;;6.15;1.60;;;12.60;25.00;;;;;;4956387;28;20035;-39
2022/04/02 09:19:47;;;;;;;4.22;1.10;;;12.60;24.70;;;;;;4975605;28;20018;-39
2022/04/02 09:22:32;;;;;;;6.85;1.88;;;12.60;24.00;;;;;;4971194;28;20511;-39
2022/04/02 09:25:13;;;;;;;3.72;1.65;;;12.70;24.40;;;;;;4971053;28;20027;-39
2022/04/02 09:27:54;;;;;;;10.35;2.13;;;12.80;24.30;;;;;;4971083;28;20026;-39
2022/04/02 09:31:02;;;;;;;4.03;1.80;;;12.80;24.20;;;;;;4974929;28;20038;-39
2022/04/02 09:33:36;;;;;;;4.07;1.50;;;12.80;23.20;;;;;;4952142;28;20097;-40
2022/04/02 09:36:20;;;;;;;;;;;12.70;24.60;;;;;;4974511;28;20043;-40
2022/04/02 09:39:05;;;;;;;4.68;1.70;;;12.70;23.10;;;;;;4971870;28;19914;-40
2022/04/02 09:41:53;;;;;;;5.00;1.77;;;12.80;23.30;;;;;;4971459;28;20035;-40
2022/04/02 09:44:40;;;;;;;8.02;1.98;;;12.80;23.50;;;;;;4969583;28;20027;-40
2022/04/02 09:47:17;;;;;;;4.93;1.77;;;12.90;23.90;;;;;;4970901;28;20050;-40
2022/04/02 09:49:57;;;;;;;6.30;2.08;;;12.90;23.10;;;;;;4971310;28;20029;-40
2022/04/02 09:52:26;;;;;;;3.00;1.48;;;13.00;22.70;;;;;;4971430;28;20058;-40
2022/04/02 09:55:00;;;;;;;7.80;2.33;;;12.90;23.30;;;;;;4971816;28;20436;-40
2022/04/02 09:57:38;;;;;;;6.60;2.20;;;13.00;22.80;;;;;;4952573;28;20101;-40
2022/04/02 10:00:08;;;;;;;4.47;1.92;;;13.00;23.20;;;;;;4970229;28;20807;-40
2022/04/02 10:02:59;;;;;;;3.63;2.05;;;13.00;23.20;;;;;;4970756;28;20054;-39
2022/04/02 10:05:50;;;;;;;3.72;1.90;;;13.00;23.50;;;;;;4970861;28;20128;-39
2022/04/02 10:08:46;;;;;;;4.65;2.63;;;12.90;23.10;;;;;;4971806;28;20030;-40
2022/04/02 10:11:17;;;;;;;3.67;1.73;;;13.00;22.80;;;;;;4969400;28;20031;-40
2022/04/02 10:13:44;;;;;;;5.35;1.42;;;13.10;22.20;;;;;;4969156;28;20027;-40
2022/04/02 10:16:12;;;;;;;2.17;1.17;;;13.30;21.70;;;;;;4969794;28;20033;-41
2022/04/02 10:18:40;;;;;;;6.50;1.85;;;13.40;21.80;;;;;;4971837;28;20019;-40
2022/04/02 10:21:06;;;;;;;5.07;1.98;;;13.40;20.50;;;;;;4970543;28;20089;-40
2022/04/02 10:23:35;;;;;;;4.40;1.80;;;13.60;21.70;;;;;;4970830;28;20126;-39
2022/04/02 10:26:11;;;;;;;2.80;1.52;;;13.50;21.70;;;;;;4970495;28;20038;-40
2022/04/02 10:28:57;;;;;;;5.68;1.92;;;;;;;;;;4970836;28;20023;-40
2022/04/02 10:31:46;;;;;;;6.22;2.13;;;13.70;21.50;;;;;;4968243;28;20082;-40
2022/04/02 10:34:25;;;;;;;4.45;1.70;;;13.50;22.30;;;;;;4970279;28;20130;-40
2022/04/02 10:36:55;;;;;;;5.90;2.60;;;13.30;23.20;;;;;;4968001;28;20035;-40
2022/04/02 10:39:24;;;;;;;6.30;1.55;;;13.20;22.00;;;;;;4970559;28;20058;-40
2022/04/02 10:45:14;;;;;;;2.47;1.50;;;12.90;22.40;;;;;;4970590;28;20046;-41
2022/04/02 10:48:06;;;;;;;5.40;1.90;;;13.00;23.50;;;;;;4966867;28;20034;-40
2022/04/02 10:50:32;;;;;;;4.93;1.90;;;13.00;23.80;;;;;;4970496;28;20051;-40
2022/04/02 10:53:03;;;;;;;7.40;2.60;;;13.10;23.00;;;;;;4970746;28;20149;-40
2022/04/02 10:55:29;;;;;;;4.68;2.22;;;13.00;23.40;;;;;;4966457;28;20038;-40
2022/04/02 10:58:00;;;;;;;3.28;1.95;;;13.10;23.40;;;;;;4971203;28;20109;-40
2022/04/02 11:00:27;;;;;;;4.28;1.98;;;13.20;23.90;;;;;;4970285;28;20039;-40
2022/04/02 11:03:05;;;;;;;4.97;2.55;;;13.10;24.10;;;;;;4967755;28;20477;-40
2022/04/02 11:05:38;;;;;;;5.90;2.15;;;13.10;23.10;;;;;;4970904;28;20388;-39
2022/04/02 11:08:09;;;;;;;3.38;2.05;;;13.10;23.30;;;;;;4971630;28;20489;-40
2022/04/02 11:10:36;;;;;;;3.45;2.05;;;13.20;22.70;;;;;;4972593;28;20038;-40
2022/04/02 11:13:04;;;;;;;3.97;2.25;;;13.30;23.70;;;;;;4973271;28;20027;-39
2022/04/02 11:15:36;;;;;;;6.03;2.78;;;13.30;23.70;;;;;;4972542;28;20027;-40
2022/04/02 11:18:03;;;;;;;6.95;2.20;;;13.40;23.70;;;;;;4971918;28;20114;-39
2022/04/02 11:20:30;;;;;;;6.63;2.63;;;13.50;23.40;;;;;;4971850;28;20031;-40
2022/04/02 11:23:02;;;;;;;5.38;2.33;;;13.40;22.90;;;;;;4972759;28;20023;-40
2022/04/02 11:25:31;;;;;;;8.32;2.55;;;13.30;23.10;;;;;;4972158;28;20035;-40
2022/04/02 11:28:08;;;;;;;6.55;2.33;;;13.30;23.30;;;;;;4972583;28;20015;-40
2022/04/02 11:30:37;;;;;;;7.47;2.88;;;13.30;22.90;;;;;;4970126;28;20046;-40
2022/04/02 11:33:12;;;;;;;4.10;2.28;;;13.20;22.70;;;;;;4972635;28;20055;-40
2022/04/02 11:35:55;;;;;;;6.28;2.25;;;13.30;22.50;;;;;;4972546;28;20050;-40
2022/04/02 11:38:25;;;;;;;3.10;2.25;;;13.50;22.30;;;;;;4972732;28;20035;-40
2022/04/02 11:41:07;;;;;;;4.28;1.85;;;13.20;22.80;;;;;;4972417;28;20362;-40
2022/04/02 11:43:35;;;;;;;3.63;2.25;;;13.40;21.50;;;;;;4973038;28;20026;-40
2022/04/02 11:46:03;;;;;;;5.72;1.83;;;13.40;22.20;;;;;;4971392;28;20488;-40
2022/04/02 11:48:35;;;;;;;3.05;1.70;;;13.40;22.00;;;;;;4972166;28;20034;-40
2022/04/02 11:51:12;;;;;;;6.45;2.90;;;13.20;22.60;;;;;;4972295;28;20039;-40
2022/04/02 11:53:38;;;;;;;6.80;2.17;;;13.20;22.10;;;;;;4972881;28;20114;-41
2022/04/02 11:56:21;;;;;;;5.88;2.00;;;13.00;22.90;;;;;;4970585;28;20383;-40
2022/04/02 11:58:48;;;;;;;4.95;3.00;;;13.10;22.40;;;;;;4973104;28;20082;-40
2022/04/02 12:01:14;;;;;;;5.05;2.28;;;13.40;22.70;;;;;;4972148;28;20425;-40
2022/04/02 12:10:45;;;;;;;4.97;2.30;;;13.50;21.10;;;;;;4968713;28;20076;-39
2022/04/02 12:13:10;;;;;;;6.22;2.45;;;13.40;20.90;;;;;;4975596;28;20030;-40
2022/04/02 12:15:36;;;;;;;3.90;1.85;;;13.50;21.20;;;;;;4976631;28;20090;-39
2022/04/02 12:18:06;;;;;;;4.78;2.08;;;13.40;21.00;;;;;;4975692;28;20046;-40
2022/04/02 12:20:37;;;;;;;5.18;2.22;;;13.70;20.70;;;;;;4976579;28;20102;-40
2022/04/02 12:23:09;;;;;;;5.28;2.42;;;13.90;21.10;;;;;;4975556;28;20041;-39
2022/04/02 12:25:36;;;;;;;6.35;2.45;;;13.80;19.50;;;;;;4973621;28;20400;-40
2022/04/02 12:28:11;;;;;;;4.82;2.03;;;13.70;20.40;;;;;;4975317;28;20513;-39
2022/04/02 12:30:37;;;;;;;6.82;2.75;;;13.70;20.40;;;;;;4976285;28;20035;-40
2022/04/02 12:33:07;;;;;;;3.25;2.10;;;13.70;19.70;;;;;;4975364;28;20026;-40
2022/04/02 12:35:34;;;;;;;11.10;2.50;;;13.60;19.70;;;;;;4976172;28;20137;-40
2022/04/02 12:38:03;;;;;;;3.88;2.15;;;13.50;19.80;;;;;;4975216;28;20038;-40
2022/04/02 12:40:31;;;;;;;5.97;2.17;;;13.70;20.20;;;;;;4975268;28;20027;-40
2022/04/02 12:43:10;;;;;;;6.03;1.98;;;13.50;19.50;;;;;;4974038;28;20026;-40
2022/04/02 12:45:37;;;;;;;2.45;1.70;;;13.50;19.40;;;;;;4975570;28;20157;-40
2022/04/02 12:48:10;;;;;;;3.42;1.67;;;13.50;20.40;;;;;;4975068;28;20038;-40
2022/04/02 12:50:59;;;;;;;3.85;1.70;;;13.60;19.50;;;;;;4976331;28;20109;-40
2022/04/02 12:53:30;;;;;;;4.22;1.70;;;13.40;19.30;;;;;;4957527;28;20493;-40
2022/04/02 12:55:58;;;;;;;5.18;1.83;;;13.60;20.00;;;;;;4974338;28;20089;-40
2022/04/02 12:58:33;;;;;;;3.92;1.80;;;13.40;19.10;;;;;;4973454;28;20089;-40
2022/04/02 13:01:19;;;;;;;4.07;1.98;;;13.50;18.70;;;;;;4975646;28;20031;-39
2022/04/02 13:04:00;;;;;;;5.10;1.88;;;13.40;19.30;;;;;;4974873;28;20516;-40
2022/04/02 13:06:29;;;;;;;3.08;2.00;;;13.40;20.10;;;;;;4975651;28;20384;-39
2022/04/02 13:09:21;;;;;;;3.33;1.85;;;13.50;19.60;;;;;;4973870;28;20035;-39
2022/04/02 13:11:52;;;;;;;4.70;1.30;;;13.50;19.40;;;;;;4976713;28;20082;-40
2022/04/02 13:14:28;;;;;;;3.63;1.75;;;13.70;18.60;;;;;;4974587;28;20038;-39
2022/04/02 13:17:08;;;;;;;6.00;2.05;;;13.70;18.60;;;;;;4975557;28;20027;-40
2022/04/02 13:22:53;;;;;;;6.15;2.55;;;13.80;17.90;;;;;;4974540;28;20038;-39